Balmedie, United Kingdom
Current Conditions -  °F | °C
As of 4:50 AM on Sunday 23 Nov 2014 (Local Time) from EGPD Reporting Station
Broken Clouds Broken Clouds  
Wind Chill:   Ceiling: 4700
Heat Index:   Visibility: 6mi
Dew Point:   Wind: 0mph
Humidity: 93%   Direction: NA
Pressure: 29.91"   Gusts: NA
Location:  57.25°N, 2.06°W
Report Text: EGPD 230450Z 00000KT 9999 BKN047 06/05 Q1013 NOSIG
Loading
Personal Weather Stations






























Interactive Weather Map New forecast layout! Learn more

10-Day Weather Forecast

Advertisements
Track Severe Weather on mobile